sensor_id;sensor_type;location;lat;lon;timestamp;P1;durP1;ratioP1;P2;durP2;ratioP2
7883;SDS011;3987;51.458;7.238;2023-10-19T00:00:36;6.40;;;6.03;;
7883;SDS011;3987;51.458;7.238;2023-10-19T00:15:39;6.97;;;6.57;;
7883;SDS011;3987;51.458;7.238;2023-10-19T00:30:47;7.60;;;7.20;;
7883;SDS011;3987;51.458;7.238;2023-10-19T00:45:51;9.03;;;8.57;;
7883;SDS011;3987;51.458;7.238;2023-10-19T01:00:52;7.68;;;7.38;;
7883;SDS011;3987;51.458;7.238;2023-10-19T01:15:55;7.23;;;6.90;;
7883;SDS011;3987;51.458;7.238;2023-10-19T01:30:57;8.10;;;7.70;;
7883;SDS011;3987;51.458;7.238;2023-10-19T01:46:02;8.03;;;7.63;;
7883;SDS011;3987;51.458;7.238;2023-10-19T02:01:07;9.13;;;8.63;;
7883;SDS011;3987;51.458;7.238;2023-10-19T02:16:15;7.77;;;7.47;;
7883;SDS011;3987;51.458;7.238;2023-10-19T02:31:17;7.07;;;6.67;;
7883;SDS011;3987;51.458;7.238;2023-10-19T02:46:21;4.40;;;4.00;;
7883;SDS011;3987;51.458;7.238;2023-10-19T03:01:23;3.37;;;3.27;;
7883;SDS011;3987;51.458;7.238;2023-10-19T03:16:29;2.57;;;2.57;;
7883;SDS011;3987;51.458;7.238;2023-10-19T03:31:30;2.10;;;2.10;;
7883;SDS011;3987;51.458;7.238;2023-10-19T03:46:32;2.50;;;2.40;;
7883;SDS011;3987;51.458;7.238;2023-10-19T04:01:37;2.43;;;2.23;;
7883;SDS011;3987;51.458;7.238;2023-10-19T04:16:38;2.47;;;2.47;;
7883;SDS011;3987;51.458;7.238;2023-10-19T04:31:43;2.23;;;2.13;;
7883;SDS011;3987;51.458;7.238;2023-10-19T04:46:56;2.73;;;2.47;;
7883;SDS011;3987;51.458;7.238;2023-10-19T05:01:57;2.00;;;2.00;;
7883;SDS011;3987;51.458;7.238;2023-10-19T05:16:57;2.83;;;2.70;;
7883;SDS011;3987;51.458;7.238;2023-10-19T05:31:58;2.23;;;2.07;;
7883;SDS011;3987;51.458;7.238;2023-10-19T05:46:58;2.30;;;2.20;;
7883;SDS011;3987;51.458;7.238;2023-10-19T06:01:59;2.63;;;2.43;;
7883;SDS011;3987;51.458;7.238;2023-10-19T06:16:59;2.60;;;2.40;;
7883;SDS011;3987;51.458;7.238;2023-10-19T06:32:01;3.20;;;3.03;;
7883;SDS011;3987;51.458;7.238;2023-10-19T06:47:02;3.60;;;3.30;;
7883;SDS011;3987;51.458;7.238;2023-10-19T07:02:02;3.73;;;3.20;;
7883;SDS011;3987;51.458;7.238;2023-10-19T07:17:03;4.93;;;3.10;;
7883;SDS011;3987;51.458;7.238;2023-10-19T07:32:04;2.60;;;2.50;;
7883;SDS011;3987;51.458;7.238;2023-10-19T07:47:04;4.78;;;2.60;;
7883;SDS011;3987;51.458;7.238;2023-10-19T08:02:07;2.10;;;2.10;;
7883;SDS011;3987;51.458;7.238;2023-10-19T08:17:08;2.87;;;2.53;;
7883;SDS011;3987;51.458;7.238;2023-10-19T08:32:09;2.97;;;2.87;;
7883;SDS011;3987;51.458;7.238;2023-10-19T08:47:09;4.00;;;2.37;;
7883;SDS011;3987;51.458;7.238;2023-10-19T09:02:12;1.77;;;1.67;;
7883;SDS011;3987;51.458;7.238;2023-10-19T09:17:13;3.17;;;2.40;;
7883;SDS011;3987;51.458;7.238;2023-10-19T09:32:14;1.60;;;1.50;;
7883;SDS011;3987;51.458;7.238;2023-10-19T09:47:17;4.33;;;2.00;;
7883;SDS011;3987;51.458;7.238;2023-10-19T10:02:24;2.13;;;1.80;;
7883;SDS011;3987;51.458;7.238;2023-10-19T10:17:26;2.20;;;2.07;;
7883;SDS011;3987;51.458;7.238;2023-10-19T10:32:46;2.10;;;1.47;;
7883;SDS011;3987;51.458;7.238;2023-10-19T10:47:53;3.97;;;1.63;;
7883;SDS011;3987;51.458;7.238;2023-10-19T11:02:59;2.87;;;1.20;;
7883;SDS011;3987;51.458;7.238;2023-10-19T11:18:09;1.70;;;1.40;;
7883;SDS011;3987;51.458;7.238;2023-10-19T11:33:10;6.17;;;1.63;;
7883;SDS011;3987;51.458;7.238;2023-10-19T11:48:10;3.07;;;1.57;;
7883;SDS011;3987;51.458;7.238;2023-10-19T12:03:12;1.90;;;1.50;;
7883;SDS011;3987;51.458;7.238;2023-10-19T12:18:13;2.77;;;1.50;;
7883;SDS011;3987;51.458;7.238;2023-10-19T12:33:14;2.63;;;1.43;;
7883;SDS011;3987;51.458;7.238;2023-10-19T12:48:14;7.30;;;2.53;;
7883;SDS011;3987;51.458;7.238;2023-10-19T13:03:15;4.20;;;1.37;;
7883;SDS011;3987;51.458;7.238;2023-10-19T13:18:16;2.73;;;1.20;;
7883;SDS011;3987;51.458;7.238;2023-10-19T13:33:20;3.43;;;1.67;;
7883;SDS011;3987;51.458;7.238;2023-10-19T13:48:21;6.50;;;1.20;;
7883;SDS011;3987;51.458;7.238;2023-10-19T14:03:22;2.07;;;1.90;;
7883;SDS011;3987;51.458;7.238;2023-10-19T14:18:22;4.57;;;2.23;;
7883;SDS011;3987;51.458;7.238;2023-10-19T14:33:22;5.60;;;1.90;;
7883;SDS011;3987;51.458;7.238;2023-10-19T14:48:23;2.13;;;1.67;;
7883;SDS011;3987;51.458;7.238;2023-10-19T15:03:24;5.87;;;2.40;;
7883;SDS011;3987;51.458;7.238;2023-10-19T15:18:24;3.67;;;2.50;;
7883;SDS011;3987;51.458;7.238;2023-10-19T15:33:26;5.07;;;2.40;;
7883;SDS011;3987;51.458;7.238;2023-10-19T15:48:30;3.07;;;2.03;;
7883;SDS011;3987;51.458;7.238;2023-10-19T16:03:31;2.40;;;2.20;;
7883;SDS011;3987;51.458;7.238;2023-10-19T16:18:31;3.47;;;3.00;;
7883;SDS011;3987;51.458;7.238;2023-10-19T16:33:32;5.53;;;2.63;;
7883;SDS011;3987;51.458;7.238;2023-10-19T16:48:33;7.57;;;2.83;;
7883;SDS011;3987;51.458;7.238;2023-10-19T17:03:33;8.10;;;2.87;;
7883;SDS011;3987;51.458;7.238;2023-10-19T17:18:35;4.47;;;4.07;;
7883;SDS011;3987;51.458;7.238;2023-10-19T17:33:36;4.10;;;3.90;;
7883;SDS011;3987;51.458;7.238;2023-10-19T17:48:39;5.73;;;5.20;;
7883;SDS011;3987;51.458;7.238;2023-10-19T18:03:40;4.70;;;4.30;;
7883;SDS011;3987;51.458;7.238;2023-10-19T18:18:40;6.80;;;6.20;;
7883;SDS011;3987;51.458;7.238;2023-10-19T18:33:50;5.77;;;5.23;;
7883;SDS011;3987;51.458;7.238;2023-10-19T18:48:53;5.60;;;5.27;;
7883;SDS011;3987;51.458;7.238;2023-10-19T19:03:53;7.77;;;5.17;;
7883;SDS011;3987;51.458;7.238;2023-10-19T19:18:54;7.00;;;5.43;;
7883;SDS011;3987;51.458;7.238;2023-10-19T19:33:54;6.60;;;6.00;;
7883;SDS011;3987;51.458;7.238;2023-10-19T19:48:56;7.47;;;6.83;;
7883;SDS011;3987;51.458;7.238;2023-10-19T20:03:56;7.47;;;6.97;;
7883;SDS011;3987;51.458;7.238;2023-10-19T20:18:58;6.70;;;6.27;;
7883;SDS011;3987;51.458;7.238;2023-10-19T20:34:00;7.43;;;7.07;;
7883;SDS011;3987;51.458;7.238;2023-10-19T20:49:00;8.40;;;7.30;;
7883;SDS011;3987;51.458;7.238;2023-10-19T21:04:00;7.17;;;6.87;;
7883;SDS011;3987;51.458;7.238;2023-10-19T21:19:01;6.33;;;6.10;;
7883;SDS011;3987;51.458;7.238;2023-10-19T21:34:03;6.67;;;6.27;;
7883;SDS011;3987;51.458;7.238;2023-10-19T21:49:03;6.73;;;6.30;;
7883;SDS011;3987;51.458;7.238;2023-10-19T22:04:04;7.10;;;6.90;;
7883;SDS011;3987;51.458;7.238;2023-10-19T22:19:05;7.73;;;7.10;;
7883;SDS011;3987;51.458;7.238;2023-10-19T22:34:08;7.20;;;6.93;;
7883;SDS011;3987;51.458;7.238;2023-10-19T22:49:12;6.23;;;5.83;;
7883;SDS011;3987;51.458;7.238;2023-10-19T23:04:13;7.20;;;6.83;;
7883;SDS011;3987;51.458;7.238;2023-10-19T23:19:13;7.27;;;6.73;;
7883;SDS011;3987;51.458;7.238;2023-10-19T23:34:15;6.13;;;5.93;;
7883;SDS011;3987;51.458;7.238;2023-10-19T23:49:16;8.70;;;8.20;;
